Time;durP1;ratioP1;P1;durP2;ratioP2;P2;SDS_P1;SDS_P2;PMS_P1;PMS_P2;Temp;Humidity;BMP_temperature;BMP_pressure;BME280_temperature;BME280_humidity;BME280_pressure;Samples;Min_cycle;Max_cycle;Signal;HPM_P1;HPM_P2
2023/12/06 00:00:48;;;;;;;2.07;1.20;;;3.80;52.20;;;;;;4964038;28;47023;-68
2023/12/06 00:03:13;;;;;;;1.50;1.20;;;3.80;52.20;;;;;;4959480;28;46491;-68
2023/12/06 00:05:40;;;;;;;4.57;1.77;;;3.80;52.20;;;;;;4963536;28;46476;-68
2023/12/06 00:08:05;;;;;;;2.07;1.30;;;3.80;52.20;;;;;;4956077;28;46809;-67
2023/12/06 00:10:31;;;;;;;1.77;1.30;;;3.80;52.30;;;;;;4957233;28;47098;-68
2023/12/06 00:12:56;;;;;;;2.17;1.30;;;3.80;53.60;;;;;;4958828;28;46424;-69
2023/12/06 00:15:22;;;;;;;1.50;1.20;;;3.80;52.50;;;;;;4956718;28;46586;-69
2023/12/06 00:17:47;;;;;;;1.70;1.30;;;3.70;52.50;;;;;;4964250;28;46528;-68
2023/12/06 00:20:13;;;;;;;2.03;1.37;;;3.70;52.60;;;;;;4963431;28;46403;-69
2023/12/06 00:22:39;;;;;;;2.67;1.40;;;3.70;52.80;;;;;;4961249;28;46544;-68
2023/12/06 00:25:05;;;;;;;1.87;1.20;;;3.70;52.90;;;;;;4963552;28;46437;-68
2023/12/06 00:27:31;;;;;;;2.50;1.57;;;3.70;53.10;;;;;;4959473;28;46513;-69
2023/12/06 00:29:56;;;;;;;2.10;1.30;;;3.70;53.10;;;;;;4963657;28;46364;-68
2023/12/06 00:32:22;;;;;;;2.10;1.00;;;3.70;53.20;;;;;;4963758;28;46526;-66
2023/12/06 00:34:48;;;;;;;1.47;1.30;;;3.70;53.20;;;;;;4958680;28;46589;-68
2023/12/06 00:37:13;;;;;;;1.87;1.33;;;3.70;53.30;;;;;;4962545;28;46602;-68
2023/12/06 00:39:39;;;;;;;2.87;1.60;;;3.70;53.30;;;;;;4962623;28;47208;-68
2023/12/06 00:42:04;;;;;;;7.30;1.53;;;3.70;53.20;;;;;;4961452;28;46167;-68
2023/12/06 00:44:30;;;;;;;2.30;1.73;;;3.70;53.20;;;;;;4963506;28;46504;-68
2023/12/06 00:46:55;;;;;;;1.90;1.47;;;3.70;53.20;;;;;;4960509;28;46533;-67
2023/12/06 00:49:21;;;;;;;1.73;1.37;;;3.70;53.30;;;;;;4961377;28;46425;-69
2023/12/06 00:51:46;;;;;;;2.33;1.50;;;3.70;53.30;;;;;;4958890;28;46402;-68
2023/12/06 00:54:12;;;;;;;1.90;1.40;;;3.70;53.40;;;;;;4955986;28;46428;-68
2023/12/06 00:56:38;;;;;;;2.13;1.50;;;3.80;53.30;;;;;;4966487;28;46464;-68
2023/12/06 00:59:04;;;;;;;1.70;1.20;;;3.80;53.20;;;;;;4963066;28;48330;-69
2023/12/06 01:01:29;;;;;;;2.92;1.60;;;3.80;53.00;;;;;;4956051;28;46438;-68
2023/12/06 01:03:55;;;;;;;2.00;1.17;;;3.80;52.90;;;;;;4960109;28;46433;-68
2023/12/06 01:06:22;;;;;;;2.57;1.53;;;3.80;53.00;;;;;;4961402;28;46610;-67
2023/12/06 01:08:49;;;;;;;2.00;1.13;;;3.80;53.20;;;;;;4961385;28;46674;-68
2023/12/06 01:11:15;;;;;;;2.05;1.42;;;3.80;53.40;;;;;;4959469;28;46460;-68
2023/12/06 01:13:40;;;;;;;1.58;1.33;;;3.80;53.50;;;;;;4957132;28;46528;-69
2023/12/06 01:16:06;;;;;;;1.50;1.20;;;3.80;53.40;;;;;;4953840;28;46547;-68
2023/12/06 01:18:32;;;;;;;1.93;1.37;;;3.80;53.50;;;;;;4963748;28;46422;-68
2023/12/06 01:20:57;;;;;;;2.20;1.40;;;3.80;53.60;;;;;;4956214;28;46596;-68
2023/12/06 01:23:23;;;;;;;6.20;1.50;;;3.80;53.70;;;;;;4963245;28;46293;-68
2023/12/06 01:25:48;;;;;;;1.73;1.20;;;3.70;53.80;;;;;;4960669;28;46378;-68
2023/12/06 01:28:14;;;;;;;1.57;1.20;;;3.80;53.80;;;;;;4961440;28;47126;-68
2023/12/06 01:30:39;;;;;;;2.20;1.20;;;3.80;53.80;;;;;;4963292;28;46417;-68
2023/12/06 01:33:05;;;;;;;1.60;1.10;;;3.80;53.80;;;;;;4961188;28;46350;-68
2023/12/06 01:35:31;;;;;;;1.70;1.30;;;3.80;53.80;;;;;;4960676;28;46656;-68
2023/12/06 01:37:56;;;;;;;1.93;1.30;;;3.80;53.70;;;;;;4955473;28;46556;-68
2023/12/06 01:40:23;;;;;;;1.75;1.27;;;3.80;53.70;;;;;;4958369;28;45886;-68
2023/12/06 01:42:48;;;;;;;2.17;1.23;;;3.80;53.60;;;;;;4963016;28;46425;-68
2023/12/06 01:45:15;;;;;;;1.53;1.20;;;3.80;53.60;;;;;;4958928;28;45900;-67
2023/12/06 01:47:42;;;;;;;2.60;1.30;;;3.80;53.70;;;;;;4953424;28;46980;-67
2023/12/06 01:50:08;;;;;;;3.67;1.52;;;3.80;53.70;;;;;;4958529;28;46736;-67
2023/12/06 01:52:35;;;;;;;1.52;1.20;;;3.80;53.80;;;;;;4964536;28;46219;-68
2023/12/06 01:55:00;;;;;;;1.73;1.20;;;3.80;53.80;;;;;;4964435;28;46330;-67
2023/12/06 01:57:28;;;;;;;1.50;1.20;;;3.80;53.80;;;;;;4959428;28;47377;-67
2023/12/06 01:59:55;;;;;;;1.95;1.38;;;3.80;53.80;;;;;;4960914;28;46487;-68
2023/12/06 02:02:21;;;;;;;1.48;1.05;;;3.80;54.00;;;;;;4963888;28;46448;-69
2023/12/06 02:04:47;;;;;;;1.87;1.50;;;3.70;53.90;;;;;;4959950;28;46534;-68
2023/12/06 02:07:13;;;;;;;1.50;1.10;;;3.80;54.10;;;;;;4961347;28;46397;-68
2023/12/06 02:09:39;;;;;;;2.20;1.40;;;3.70;54.30;;;;;;4961276;28;46502;-68
2023/12/06 02:12:04;;;;;;;1.83;1.47;;;3.70;54.60;;;;;;4965266;28;46784;-68
2023/12/06 02:14:34;;;;;;;2.00;1.30;;;3.70;54.60;;;;;;4963743;28;46704;-68
2023/12/06 02:17:04;;;;;;;1.67;1.13;;;3.60;54.60;;;;;;4960219;28;46464;-68
2023/12/06 02:19:31;;;;;;;1.48;1.15;;;3.60;54.60;;;;;;4961151;28;46871;-68
2023/12/06 02:21:58;;;;;;;2.17;1.30;;;3.60;54.90;;;;;;4962059;28;46409;-68
2023/12/06 02:24:28;;;;;;;2.10;1.47;;;3.60;55.00;;;;;;4959113;28;46403;-68
2023/12/06 02:26:54;;;;;;;1.63;1.10;;;3.60;55.00;;;;;;4954778;28;46437;-69
2023/12/06 02:29:21;;;;;;;1.70;1.40;;;3.60;55.20;;;;;;4962517;28;46432;-68
2023/12/06 02:31:46;;;;;;;2.03;1.25;;;3.60;55.20;;;;;;4959075;28;46481;-68
2023/12/06 02:34:21;;;;;;;2.77;1.47;;;3.60;55.00;;;;;;4960804;28;46764;-68
2023/12/06 02:36:50;;;;;;;2.10;1.50;;;3.60;55.00;;;;;;4956750;28;46512;-67
2023/12/06 02:39:17;;;;;;;1.52;1.10;;;3.60;55.00;;;;;;4962887;28;45958;-67
2023/12/06 02:41:43;;;;;;;2.33;1.50;;;3.60;55.10;;;;;;4962668;28;46437;-67
2023/12/06 02:44:09;;;;;;;3.17;1.43;;;3.60;56.30;;;;;;4965096;28;46727;-66
2023/12/06 02:46:37;;;;;;;1.50;1.30;;;3.50;55.20;;;;;;4965389;28;47084;-68
2023/12/06 02:49:03;;;;;;;1.77;1.10;;;3.50;55.30;;;;;;4961372;28;46750;-68
2023/12/06 02:51:29;;;;;;;2.07;1.23;;;3.50;55.30;;;;;;4962427;28;46461;-68
2023/12/06 02:53:54;;;;;;;1.80;1.30;;;3.50;55.40;;;;;;4965876;28;45888;-68
2023/12/06 02:56:20;;;;;;;1.80;1.40;;;3.50;55.30;;;;;;4963272;28;47270;-66
2023/12/06 02:58:46;;;;;;;4.33;1.60;;;3.50;55.40;;;;;;4961665;28;46431;-67
2023/12/06 03:01:12;;;;;;;2.27;1.30;;;3.50;55.50;;;;;;4964301;28;46480;-69
2023/12/06 03:03:37;;;;;;;1.93;1.30;;;3.50;55.60;;;;;;4964301;28;46436;-68
2023/12/06 03:06:03;;;;;;;2.60;1.30;;;3.50;55.60;;;;;;4957343;28;46586;-68
2023/12/06 03:08:29;;;;;;;2.40;1.60;;;3.50;55.60;;;;;;4964978;28;46544;-68
2023/12/06 03:10:54;;;;;;;2.47;1.50;;;3.50;55.60;;;;;;4962571;28;45917;-68
2023/12/06 03:13:20;;;;;;;1.90;1.27;;;3.50;55.80;;;;;;4966502;28;46313;-68
2023/12/06 03:15:45;;;;;;;4.43;1.50;;;3.50;55.90;;;;;;4961180;28;46691;-68
2023/12/06 03:18:11;;;;;;;2.60;1.47;;;3.50;55.90;;;;;;4953032;28;46393;-68
2023/12/06 03:20:36;;;;;;;2.70;1.17;;;3.50;56.00;;;;;;4963229;28;46361;-67
2023/12/06 03:23:02;;;;;;;1.63;1.10;;;3.50;55.90;;;;;;4962083;28;46326;-67
2023/12/06 03:25:27;;;;;;;2.77;1.70;;;3.50;56.00;;;;;;4963146;28;46460;-66
2023/12/06 03:27:54;;;;;;;2.43;1.60;;;3.50;56.00;;;;;;4962230;28;46467;-66
2023/12/06 03:30:19;;;;;;;4.10;1.95;;;3.50;55.90;;;;;;4964829;28;46426;-68
2023/12/06 03:32:45;;;;;;;2.60;1.60;;;3.60;56.00;;;;;;4962731;28;46462;-68
2023/12/06 03:35:10;;;;;;;5.60;1.47;;;3.60;56.10;;;;;;4965810;28;46414;-68
2023/12/06 03:37:36;;;;;;;2.83;1.77;;;3.60;56.00;;;;;;4963818;28;46354;-68
2023/12/06 03:40:02;;;;;;;2.40;1.60;;;3.60;55.80;;;;;;4961767;28;46314;-68
2023/12/06 03:42:27;;;;;;;2.37;1.60;;;3.60;55.80;;;;;;4962589;28;46473;-68
2023/12/06 03:44:53;;;;;;;3.23;1.90;;;3.70;55.90;;;;;;4962821;28;46912;-68
2023/12/06 03:47:18;;;;;;;2.10;1.57;;;3.70;55.90;;;;;;4965062;28;46452;-68
2023/12/06 03:49:44;;;;;;;2.30;1.80;;;3.70;55.90;;;;;;4960208;28;46327;-67
2023/12/06 03:52:10;;;;;;;3.73;1.93;;;3.70;55.90;;;;;;4957461;28;46524;-68
2023/12/06 03:54:35;;;;;;;3.70;1.90;;;3.70;56.00;;;;;;4961987;28;47350;-68
2023/12/06 03:57:01;;;;;;;2.53;1.60;;;3.70;55.80;;;;;;4962472;28;46519;-68
2023/12/06 03:59:27;;;;;;;5.10;1.50;;;3.80;56.00;;;;;;4966740;28;46775;-68
2023/12/06 04:01:52;;;;;;;3.40;2.10;;;3.70;56.10;;;;;;4964370;28;46514;-66
2023/12/06 04:04:18;;;;;;;3.10;1.97;;;3.70;56.10;;;;;;4964047;28;46448;-68
2023/12/06 04:06:43;;;;;;;3.87;2.00;;;3.70;56.20;;;;;;4963555;28;46443;-69
2023/12/06 04:09:10;;;;;;;3.23;1.87;;;3.70;56.20;;;;;;4961355;28;46473;-66
2023/12/06 04:11:36;;;;;;;2.73;1.60;;;3.70;56.30;;;;;;4964258;28;46501;-68
2023/12/06 04:14:03;;;;;;;4.37;1.87;;;3.70;56.20;;;;;;4961312;28;46466;-67
2023/12/06 04:16:29;;;;;;;4.07;1.80;;;3.70;56.50;;;;;;4965945;28;46816;-68
2023/12/06 04:18:55;;;;;;;3.10;1.60;;;3.70;56.60;;;;;;4963428;28;46331;-68
2023/12/06 04:21:21;;;;;;;4.80;1.63;;;3.70;56.60;;;;;;4959364;28;46563;-68
2023/12/06 04:23:48;;;;;;;3.40;1.80;;;3.70;56.60;;;;;;4961118;28;46663;-68
2023/12/06 04:26:13;;;;;;;1.70;1.40;;;3.70;58.00;;;;;;4962473;28;46465;-68
2023/12/06 04:28:39;;;;;;;2.43;1.30;;;3.70;57.00;;;;;;4963601;28;46559;-68
2023/12/06 04:31:05;;;;;;;1.77;1.33;;;3.70;57.10;;;;;;4958870;28;46042;-68
2023/12/06 04:33:31;;;;;;;2.33;1.50;;;3.70;57.10;;;;;;4960261;28;47243;-67
2023/12/06 04:35:56;;;;;;;3.90;2.00;;;3.70;57.00;;;;;;4964667;28;46389;-68
2023/12/06 04:38:22;;;;;;;4.90;1.83;;;3.70;57.20;;;;;;4972220;22;46366;-70
2023/12/06 04:40:48;;;;;;;2.23;1.70;;;3.70;57.10;;;;;;4951090;28;46508;-70
2023/12/06 04:43:16;;;;;;;2.03;1.40;;;3.70;57.20;;;;;;4947739;28;46697;-70
2023/12/06 04:45:42;;;;;;;3.38;2.25;;;3.70;57.10;;;;;;4949332;28;46381;-70
2023/12/06 04:48:08;;;;;;;3.17;1.60;;;3.70;57.20;;;;;;4947882;28;46458;-70
2023/12/06 04:50:34;;;;;;;2.70;1.77;;;3.70;57.20;;;;;;4952321;28;46439;-70
2023/12/06 04:53:03;;;;;;;2.60;1.60;;;3.70;57.20;;;;;;4949366;28;47281;-70
2023/12/06 04:55:28;;;;;;;2.38;1.52;;;3.70;57.30;;;;;;4951215;28;46693;-70
2023/12/06 04:57:54;;;;;;;3.70;1.70;;;3.70;57.20;;;;;;4950302;28;46594;-70
2023/12/06 05:00:21;;;;;;;6.60;1.60;;;3.70;57.30;;;;;;4947721;28;46376;-70
2023/12/06 05:02:47;;;;;;;4.00;1.80;;;3.70;58.50;;;;;;4951455;28;48163;-70
2023/12/06 05:05:13;;;;;;;2.47;1.60;;;3.70;57.20;;;;;;4949853;28;46476;-70
2023/12/06 05:07:38;;;;;;;4.00;1.87;;;3.70;57.30;;;;;;4945926;28;46456;-70
2023/12/06 05:10:04;;;;;;;2.03;1.50;;;3.70;57.30;;;;;;4952255;28;46783;-70
2023/12/06 05:12:30;;;;;;;4.20;1.80;;;3.70;57.30;;;;;;4947235;28;46497;-70
2023/12/06 05:14:56;;;;;;;3.73;1.83;;;3.70;57.30;;;;;;4948191;28;46522;-69
2023/12/06 05:17:21;;;;;;;3.43;1.70;;;3.70;57.30;;;;;;4949251;28;46375;-70
2023/12/06 05:19:47;;;;;;;3.50;1.60;;;3.70;57.20;;;;;;4950932;28;46537;-70
2023/12/06 05:22:12;;;;;;;5.43;1.50;;;3.70;57.20;;;;;;4949729;28;46469;-70
2023/12/06 05:24:38;;;;;;;3.20;1.40;;;3.80;57.20;;;;;;4947532;28;46648;-70
2023/12/06 05:27:04;;;;;;;2.73;1.90;;;3.80;58.30;;;;;;4949467;28;45896;-71
2023/12/06 05:29:31;;;;;;;2.37;1.80;;;3.80;57.20;;;;;;4949049;28;46434;-69
2023/12/06 05:31:57;;;;;;;2.50;1.50;;;3.80;57.10;;;;;;4950982;28;47324;-69
2023/12/06 05:34:23;;;;;;;2.20;1.60;;;3.90;57.10;;;;;;4948703;28;45902;-70
2023/12/06 05:36:49;;;;;;;2.03;1.70;;;3.80;57.00;;;;;;4950096;28;46529;-70
2023/12/06 05:39:14;;;;;;;3.53;1.53;;;3.80;56.90;;;;;;4955173;28;46594;-71
2023/12/06 05:41:40;;;;;;;2.70;1.60;;;3.90;56.90;;;;;;4949735;28;46747;-69
2023/12/06 05:44:05;;;;;;;2.53;1.60;;;3.80;57.00;;;;;;4948442;28;45960;-71
2023/12/06 05:46:31;;;;;;;4.00;1.90;;;3.80;57.00;;;;;;4950126;28;46406;-70
2023/12/06 05:48:57;;;;;;;2.37;1.27;;;3.80;57.10;;;;;;4950061;28;46450;-71
2023/12/06 05:51:23;;;;;;;2.70;1.73;;;3.80;57.10;;;;;;4951187;28;47298;-70
2023/12/06 05:53:49;;;;;;;1.80;1.33;;;3.80;57.10;;;;;;4950051;28;46461;-71
2023/12/06 05:56:14;;;;;;;4.50;1.53;;;3.80;57.10;;;;;;4948482;28;46495;-70
2023/12/06 05:58:41;;;;;;;2.80;1.93;;;3.80;57.00;;;;;;4947692;28;46418;-70
2023/12/06 06:01:07;;;;;;;3.47;1.97;;;3.80;57.00;;;;;;4947463;28;46422;-71
2023/12/06 06:03:33;;;;;;;2.53;1.40;;;3.80;57.00;;;;;;4947717;28;46962;-71
2023/12/06 06:06:07;;;;;;;3.30;1.77;;;3.80;57.10;;;;;;4950683;28;46641;-71
2023/12/06 06:08:34;;;;;;;2.93;1.70;;;3.90;56.90;;;;;;4949844;28;46429;-70
2023/12/06 06:11:01;;;;;;;3.65;1.65;;;3.90;56.90;;;;;;4945157;28;46370;-71
2023/12/06 06:13:29;;;;;;;2.43;1.43;;;3.90;57.00;;;;;;4947035;28;46188;-70
2023/12/06 06:15:57;;;;;;;2.95;1.40;;;3.80;57.00;;;;;;4951240;28;46524;-70
2023/12/06 06:18:24;;;;;;;3.07;1.70;;;3.80;57.10;;;;;;4948691;28;46338;-69
2023/12/06 06:20:49;;;;;;;6.10;1.70;;;3.80;57.20;;;;;;4951945;28;47448;-70
2023/12/06 06:23:15;;;;;;;2.23;1.57;;;3.80;57.30;;;;;;4951079;28;46520;-71
2023/12/06 06:25:41;;;;;;;2.00;1.30;;;3.80;57.30;;;;;;4949701;28;46461;-71
2023/12/06 06:28:06;;;;;;;2.47;1.33;;;3.80;57.20;;;;;;4947769;28;46611;-70
2023/12/06 06:30:32;;;;;;;2.67;1.40;;;3.80;57.30;;;;;;4951569;28;46488;-70
2023/12/06 06:32:58;;;;;;;2.40;1.53;;;3.80;57.40;;;;;;4956172;28;46570;-70
2023/12/06 06:35:23;;;;;;;2.37;1.40;;;3.80;57.40;;;;;;4949253;28;46113;-70
2023/12/06 06:37:49;;;;;;;3.40;1.67;;;3.80;57.40;;;;;;4951667;28;46542;-70
2023/12/06 06:40:15;;;;;;;2.27;1.30;;;3.80;57.40;;;;;;4954657;28;47840;-70
2023/12/06 06:42:41;;;;;;;2.30;1.43;;;3.80;57.60;;;;;;4952180;28;45826;-70
2023/12/06 06:45:08;;;;;;;2.00;1.30;;;3.80;57.50;;;;;;4949646;28;46450;-71
2023/12/06 06:47:37;;;;;;;3.00;1.47;;;3.80;57.50;;;;;;4953612;28;45999;-70
2023/12/06 06:50:04;;;;;;;3.77;1.63;;;3.80;57.60;;;;;;4953666;28;46988;-70
2023/12/06 06:52:36;;;;;;;1.58;1.00;;;3.80;57.50;;;;;;4950118;28;46652;-69
2023/12/06 06:55:02;;;;;;;6.10;1.50;;;3.80;57.40;;;;;;4949580;28;46468;-70
2023/12/06 06:57:28;;;;;;;1.53;1.13;;;3.80;57.40;;;;;;4951961;28;45982;-70
2023/12/06 06:59:53;;;;;;;1.50;0.90;;;3.80;57.40;;;;;;4948545;28;47047;-71
2023/12/06 07:02:19;;;;;;;1.77;1.30;;;3.90;57.50;;;;;;4949660;28;46476;-70
2023/12/06 07:04:45;;;;;;;1.75;1.00;;;3.90;57.30;;;;;;4950985;28;46436;-71
2023/12/06 07:07:11;;;;;;;4.83;2.90;;;3.90;57.30;;;;;;4950528;28;45910;-70
2023/12/06 07:09:37;;;;;;;2.93;2.00;;;3.90;57.40;;;;;;4946107;28;46771;-70
2023/12/06 07:12:03;;;;;;;9.00;3.23;;;3.90;57.40;;;;;;4948098;28;46641;-69
2023/12/06 07:14:29;;;;;;;2.45;1.20;;;3.90;57.30;;;;;;4952084;28;46368;-69
2023/12/06 07:16:55;;;;;;;1.90;1.53;;;3.90;57.40;;;;;;4953886;28;46689;-69
2023/12/06 07:19:21;;;;;;;2.80;1.40;;;4.10;57.30;;;;;;4952772;28;47323;-70
2023/12/06 07:21:47;;;;;;;1.65;1.17;;;4.00;57.20;;;;;;4949989;28;46445;-69
2023/12/06 07:24:13;;;;;;;1.30;1.10;;;4.00;57.10;;;;;;4950409;28;46368;-70
2023/12/06 07:26:39;;;;;;;2.03;1.33;;;4.20;57.20;;;;;;4950321;28;46438;-69
2023/12/06 07:29:05;;;;;;;2.23;1.60;;;4.10;56.90;;;;;;4952275;28;46330;-70
2023/12/06 07:31:31;;;;;;;2.33;1.30;;;4.10;56.90;;;;;;4953059;28;46102;-69
2023/12/06 07:33:57;;;;;;;1.30;1.10;;;4.20;56.90;;;;;;4949638;28;46420;-68
2023/12/06 07:36:22;;;;;;;1.57;1.10;;;4.20;56.80;;;;;;4951923;28;46299;-70
2023/12/06 07:38:48;;;;;;;1.37;1.07;;;4.20;56.90;;;;;;4948557;28;46387;-68
2023/12/06 07:41:14;;;;;;;1.73;1.08;;;4.20;56.80;;;;;;4949691;28;46430;-70
2023/12/06 07:43:40;;;;;;;1.90;1.40;;;4.20;56.80;;;;;;4948426;28;46439;-69
2023/12/06 07:46:06;;;;;;;2.10;1.50;;;4.20;56.80;;;;;;4949549;28;46620;-69
2023/12/06 07:48:33;;;;;;;3.43;1.47;;;4.30;56.80;;;;;;4953236;28;46738;-70
2023/12/06 07:50:59;;;;;;;2.35;1.27;;;4.40;56.60;;;;;;4951659;28;46517;-69
2023/12/06 07:53:25;;;;;;;2.17;1.40;;;4.40;56.50;;;;;;4950148;28;45873;-69
2023/12/06 07:55:54;;;;;;;1.90;1.43;;;4.50;56.20;;;;;;4951178;28;46464;-69
2023/12/06 07:58:23;;;;;;;1.50;1.20;;;4.50;56.10;;;;;;4948508;28;46676;-69
2023/12/06 08:00:49;;;;;;;2.73;1.60;;;4.60;55.90;;;;;;4950295;28;46488;-69
2023/12/06 08:03:15;;;;;;;2.70;1.40;;;4.70;55.70;;;;;;4952400;28;46481;-69
2023/12/06 08:05:40;;;;;;;2.30;1.40;;;4.70;55.40;;;;;;4952415;28;46553;-69
2023/12/06 08:08:06;;;;;;;1.60;1.30;;;4.70;55.60;;;;;;4949233;28;47276;-69
2023/12/06 08:10:33;;;;;;;2.40;1.50;;;4.70;55.40;;;;;;4947060;28;46352;-70
2023/12/06 08:12:59;;;;;;;3.77;2.47;;;4.80;55.40;;;;;;4946185;28;46498;-70
2023/12/06 08:15:26;;;;;;;2.70;2.10;;;4.80;55.20;;;;;;4952681;28;46530;-70
2023/12/06 08:17:51;;;;;;;3.83;2.73;;;4.80;55.40;;;;;;4948393;28;46464;-70
2023/12/06 08:20:17;;;;;;;7.50;3.80;;;4.90;55.30;;;;;;4950780;28;46728;-70
2023/12/06 08:22:43;;;;;;;1.87;1.30;;;4.90;55.30;;;;;;4949504;28;46808;-69
2023/12/06 08:25:11;;;;;;;2.43;1.60;;;4.90;55.20;;;;;;4952128;28;46463;-69
2023/12/06 08:27:37;;;;;;;3.17;1.73;;;5.00;55.00;;;;;;4950981;28;46083;-69
2023/12/06 08:30:03;;;;;;;2.20;1.30;;;5.10;54.90;;;;;;4950973;28;46293;-69
2023/12/06 08:32:29;;;;;;;1.50;1.10;;;5.10;54.70;;;;;;4950120;28;46396;-69
2023/12/06 08:34:54;;;;;;;1.50;1.27;;;5.30;54.20;;;;;;4949588;28;46491;-69
2023/12/06 08:37:20;;;;;;;1.67;1.20;;;5.30;53.90;;;;;;4948822;28;46506;-69
2023/12/06 08:39:47;;;;;;;1.83;1.30;;;5.40;53.80;;;;;;4952328;28;46841;-69
2023/12/06 08:42:14;;;;;;;1.50;1.17;;;5.50;53.70;;;;;;4949654;28;46520;-69
2023/12/06 08:44:41;;;;;;;1.80;1.07;;;5.50;53.60;;;;;;4951058;28;46414;-69
2023/12/06 08:47:07;;;;;;;2.33;1.17;;;5.50;54.80;;;;;;4949215;28;47185;-69
2023/12/06 08:49:34;;;;;;;1.93;1.20;;;5.50;53.40;;;;;;4948398;28;46492;-70
2023/12/06 08:51:59;;;;;;;1.67;1.17;;;5.60;53.30;;;;;;4953214;28;46267;-68
2023/12/06 08:54:25;;;;;;;2.80;1.67;;;5.60;53.30;;;;;;4950500;28;46626;-70
2023/12/06 08:56:50;;;;;;;1.37;1.17;;;5.60;53.20;;;;;;4946460;28;46414;-69
2023/12/06 08:59:16;;;;;;;2.70;1.30;;;5.70;53.00;;;;;;4947393;28;46532;-68
2023/12/06 09:01:41;;;;;;;4.30;2.70;;;5.80;52.90;;;;;;4951780;28;46517;-69
2023/12/06 09:04:09;;;;;;;3.20;1.77;;;5.80;52.80;;;;;;4949700;28;47304;-69
2023/12/06 09:06:35;;;;;;;3.80;1.70;;;5.70;52.70;;;;;;4949418;28;46587;-71
2023/12/06 09:09:03;;;;;;;2.37;1.63;;;5.80;52.80;;;;;;4949907;28;46508;-68
2023/12/06 09:11:29;;;;;;;9.03;1.97;;;5.80;52.70;;;;;;4948686;28;46415;-69
2023/12/06 09:13:55;;;;;;;3.43;1.43;;;5.80;52.50;;;;;;4948451;28;46466;-69
2023/12/06 09:16:21;;;;;;;1.70;1.40;;;5.80;52.10;;;;;;4948268;28;47096;-69
2023/12/06 09:18:46;;;;;;;2.20;1.50;;;5.90;52.20;;;;;;4950450;28;46393;-69
2023/12/06 09:21:13;;;;;;;1.90;1.40;;;5.90;52.10;;;;;;4950654;28;46456;-70
2023/12/06 09:23:39;;;;;;;2.80;1.60;;;5.80;52.00;;;;;;4948643;28;46397;-69
2023/12/06 09:26:05;;;;;;;3.27;1.40;;;5.80;51.20;;;;;;4949857;28;47024;-68
2023/12/06 09:28:30;;;;;;;3.87;1.50;;;5.90;51.30;;;;;;4949638;28;46456;-68
2023/12/06 09:30:56;;;;;;;3.60;1.40;;;6.00;51.10;;;;;;4951702;28;46347;-68
2023/12/06 09:33:22;;;;;;;3.47;1.60;;;6.10;50.70;;;;;;4947827;28;46930;-67
2023/12/06 09:35:47;;;;;;;2.80;1.50;;;6.10;50.40;;;;;;4948982;28;46603;-68
2023/12/06 09:38:13;;;;;;;2.30;1.70;;;6.20;50.00;;;;;;4949507;28;46481;-69
2023/12/06 09:40:38;;;;;;;4.90;1.40;;;6.30;49.40;;;;;;4950275;28;46342;-69
2023/12/06 09:43:04;;;;;;;2.63;1.53;;;6.40;49.50;;;;;;4950717;28;46426;-70
2023/12/06 09:45:30;;;;;;;2.93;1.60;;;6.50;49.60;;;;;;4961903;28;47272;-68
2023/12/06 09:47:56;;;;;;;3.40;1.90;;;6.50;49.40;;;;;;4955216;28;46469;-68
2023/12/06 09:50:24;;;;;;;3.27;1.80;;;6.50;49.30;;;;;;4953374;28;46448;-68
2023/12/06 09:52:54;;;;;;;2.80;1.80;;;6.50;48.80;;;;;;4953567;28;46559;-68
2023/12/06 09:55:24;;;;;;;5.00;2.07;;;6.50;48.80;;;;;;4953172;28;47229;-68
2023/12/06 09:57:54;;;;;;;3.63;1.60;;;6.50;48.90;;;;;;4952534;28;46730;-67
2023/12/06 10:00:21;;;;;;;2.53;1.53;;;6.50;48.70;;;;;;4952234;28;46240;-68
2023/12/06 10:02:57;;;;;;;2.83;1.40;;;6.60;48.40;;;;;;4950715;28;46395;-68
2023/12/06 10:05:23;;;;;;;1.87;1.27;;;6.60;47.90;;;;;;4950445;28;47058;-67
2023/12/06 10:07:49;;;;;;;3.00;1.53;;;6.60;47.80;;;;;;4951643;28;46486;-67
2023/12/06 10:10:22;;;;;;;3.07;1.90;;;6.70;47.40;;;;;;4948315;28;46607;-68
2023/12/06 10:12:53;;;;;;;1.90;1.20;;;6.80;46.70;;;;;;4956179;28;46597;-67
2023/12/06 10:15:20;;;;;;;3.23;1.70;;;6.90;46.60;;;;;;4949299;28;46712;-67
2023/12/06 10:17:46;;;;;;;2.20;1.63;;;7.00;46.10;;;;;;4950599;28;46517;-67
2023/12/06 10:20:13;;;;;;;2.23;1.70;;;7.00;45.80;;;;;;4951516;28;45895;-67
2023/12/06 10:22:38;;;;;;;2.60;1.60;;;7.10;45.50;;;;;;4955089;28;46801;-68
2023/12/06 10:25:08;;;;;;;2.80;1.80;;;7.10;45.20;;;;;;4950237;28;46481;-68
2023/12/06 10:27:35;;;;;;;3.50;1.87;;;7.10;45.10;;;;;;4949146;28;46503;-68
2023/12/06 10:30:05;;;;;;;4.00;1.60;;;7.20;45.00;;;;;;4953288;28;46441;-68
2023/12/06 10:32:32;;;;;;;2.80;1.60;;;7.20;44.80;;;;;;4953261;28;46458;-68
2023/12/06 10:35:03;;;;;;;4.63;1.40;;;7.20;44.80;;;;;;4949903;28;47267;-67
2023/12/06 10:37:30;;;;;;;2.10;1.50;;;7.20;44.60;;;;;;4951833;28;45822;-67
2023/12/06 10:40:00;;;;;;;3.60;1.90;;;7.20;44.60;;;;;;4952867;28;46491;-68
2023/12/06 10:42:34;;;;;;;2.50;1.63;;;7.20;44.40;;;;;;4952458;28;46466;-67
2023/12/06 10:45:01;;;;;;;2.77;1.73;;;7.10;44.30;;;;;;4952221;28;46475;-67
2023/12/06 10:47:28;;;;;;;2.73;1.53;;;7.10;44.30;;;;;;4951423;28;46446;-67
2023/12/06 10:49:54;;;;;;;3.80;1.90;;;7.30;43.90;;;;;;4951224;28;46393;-66
2023/12/06 10:52:22;;;;;;;3.77;1.67;;;7.40;43.20;;;;;;4952189;28;46569;-67
2023/12/06 10:54:49;;;;;;;3.60;1.70;;;7.40;42.90;;;;;;4949587;28;46404;-68
2023/12/06 10:57:17;;;;;;;3.53;1.60;;;7.40;42.70;;;;;;4952272;28;46480;-68
2023/12/06 10:59:43;;;;;;;3.47;1.93;;;7.40;42.70;;;;;;4950180;28;46480;-68
2023/12/06 11:02:12;;;;;;;2.60;1.60;;;7.40;42.30;;;;;;4950935;28;46488;-67
2023/12/06 11:04:45;;;;;;;2.80;1.40;;;7.40;42.40;;;;;;4952304;28;47232;-68
2023/12/06 11:07:18;;;;;;;2.13;1.70;;;7.50;42.50;;;;;;4954370;28;46120;-68
2023/12/06 11:10:08;;;;;;;3.43;1.70;;;7.40;41.60;;;;;;4950339;28;46857;-68
2023/12/06 11:12:57;;;;;;;4.97;1.70;;;7.30;41.60;;;;;;4955091;28;46483;-68
2023/12/06 11:15:41;;;;;;;3.50;2.03;;;7.30;41.80;;;;;;4955426;28;46464;-68
2023/12/06 11:18:09;;;;;;;3.37;1.70;;;7.10;41.90;;;;;;4953651;28;46429;-68
2023/12/06 11:20:38;;;;;;;3.80;1.60;;;7.10;42.00;;;;;;4950099;28;46425;-68
2023/12/06 11:23:03;;;;;;;2.50;1.40;;;7.10;41.90;;;;;;4948569;28;46607;-68
2023/12/06 11:25:29;;;;;;;2.50;1.63;;;7.00;41.90;;;;;;4952033;28;46589;-67
2023/12/06 11:27:55;;;;;;;3.07;1.63;;;7.00;42.10;;;;;;4952959;28;46885;-68
2023/12/06 11:30:22;;;;;;;4.70;1.40;;;7.00;41.90;;;;;;4949559;28;46410;-68
2023/12/06 11:32:56;;;;;;;3.33;1.60;;;6.90;42.00;;;;;;4951141;28;46520;-67
2023/12/06 11:35:23;;;;;;;2.20;1.67;;;6.90;42.00;;;;;;4953539;28;47145;-67
2023/12/06 11:37:53;;;;;;;3.27;1.40;;;6.90;42.10;;;;;;4955101;28;46440;-67
2023/12/06 11:40:24;;;;;;;5.40;2.03;;;6.70;42.00;;;;;;4952837;28;46415;-67
2023/12/06 11:43:00;;;;;;;7.50;2.10;;;6.70;41.70;;;;;;4951024;28;46435;-67
2023/12/06 11:45:30;;;;;;;2.80;1.90;;;6.60;42.00;;;;;;4949880;28;46530;-67
2023/12/06 11:48:01;;;;;;;2.40;1.60;;;6.60;41.90;;;;;;4949056;28;46490;-68
2023/12/06 11:50:27;;;;;;;4.33;2.13;;;6.70;41.70;;;;;;4952015;28;46442;-67
2023/12/06 11:52:54;;;;;;;2.50;1.60;;;6.70;41.60;;;;;;4952391;28;46338;-67
2023/12/06 11:55:21;;;;;;;5.10;1.60;;;6.60;42.00;;;;;;4950406;28;46056;-67
2023/12/06 11:58:07;;;;;;;4.23;1.70;;;6.50;42.00;;;;;;4951096;28;46530;-66
2023/12/06 12:00:34;;;;;;;2.83;1.97;;;6.50;41.80;;;;;;4948318;28;46496;-67
2023/12/06 12:03:02;;;;;;;2.63;1.70;;;6.50;41.80;;;;;;4949449;28;46657;-67
2023/12/06 12:05:28;;;;;;;3.90;2.03;;;6.50;41.80;;;;;;4952017;28;46285;-68
2023/12/06 12:07:54;;;;;;;3.57;1.70;;;6.50;41.50;;;;;;4950204;28;46329;-68
2023/12/06 12:10:20;;;;;;;2.93;1.60;;;6.50;41.50;;;;;;4944670;28;46487;-67
2023/12/06 12:12:49;;;;;;;2.10;1.50;;;6.50;41.80;;;;;;4951595;28;46652;-67
2023/12/06 12:15:16;;;;;;;5.80;1.90;;;6.50;41.50;;;;;;4951333;28;47284;-68
2023/12/06 12:17:44;;;;;;;3.33;1.90;;;6.50;41.40;;;;;;4949800;28;46481;-68
2023/12/06 12:20:13;;;;;;;2.67;1.60;;;6.50;41.70;;;;;;4950153;28;45906;-68
2023/12/06 12:22:50;;;;;;;3.53;2.10;;;6.50;41.80;;;;;;4949281;28;46476;-68
2023/12/06 12:25:17;;;;;;;3.27;2.10;;;6.50;41.40;;;;;;4948205;28;46489;-68
2023/12/06 12:27:47;;;;;;;2.30;1.70;;;6.60;41.20;;;;;;4950767;28;46464;-68
2023/12/06 12:30:13;;;;;;;3.07;1.70;;;6.70;41.00;;;;;;4949276;28;46496;-68
2023/12/06 12:32:49;;;;;;;3.27;1.80;;;6.80;40.60;;;;;;4947889;28;46339;-67
2023/12/06 12:35:15;;;;;;;5.00;1.53;;;6.80;40.30;;;;;;4950832;28;46465;-68
2023/12/06 12:37:42;;;;;;;3.63;1.77;;;6.80;40.50;;;;;;4951182;28;46346;-68
2023/12/06 12:40:09;;;;;;;4.10;1.80;;;6.80;40.60;;;;;;4957983;28;47239;-68
2023/12/06 12:42:42;;;;;;;2.63;1.80;;;6.80;40.60;;;;;;4952198;28;46422;-68
2023/12/06 12:45:10;;;;;;;4.13;2.10;;;6.70;40.60;;;;;;4950705;28;46623;-68
2023/12/06 12:47:37;;;;;;;4.10;2.00;;;6.60;40.70;;;;;;4946147;28;46424;-68
2023/12/06 12:50:05;;;;;;;5.00;2.27;;;6.50;40.90;;;;;;4947771;28;46550;-67
2023/12/06 12:52:35;;;;;;;4.70;1.90;;;6.50;41.10;;;;;;4948924;28;46411;-67
2023/12/06 12:55:05;;;;;;;3.40;2.00;;;6.40;41.10;;;;;;4948327;28;48067;-67